createdAt,value
2023-02-06T00:00:30.785Z,0.00
2023-02-06T00:01:21.351Z,0.00
2023-02-06T00:02:16.693Z,0.00
2023-02-06T00:03:20.259Z,0.00
2023-02-06T00:04:17.582Z,0.00
2023-02-06T00:05:30.582Z,0.00
2023-02-06T00:06:22.185Z,0.00
2023-02-06T00:07:21.605Z,0.00
2023-02-06T00:08:23.183Z,0.00
2023-02-06T00:09:17.370Z,0.00
2023-02-06T00:10:37.634Z,0.00
2023-02-06T00:11:32.914Z,0.00
2023-02-06T00:12:23.500Z,0.00
2023-02-06T00:13:19.293Z,0.00
2023-02-06T00:14:16.116Z,0.00
2023-02-06T00:15:16.044Z,0.00
2023-02-06T00:16:14.992Z,0.00
2023-02-06T00:17:19.617Z,0.00
2023-02-06T00:18:15.921Z,0.00
2023-02-06T00:19:22.173Z,0.00
2023-02-06T00:21:47.104Z,0.00
2023-02-06T00:22:19.472Z,0.00
2023-02-06T00:23:03.786Z,0.00
2023-02-06T00:25:01.612Z,0.00
2023-02-06T00:25:16.989Z,0.00
2023-02-06T00:26:18.295Z,0.00
2023-02-06T00:27:31.827Z,0.00
2023-02-06T00:28:42.777Z,0.04
2023-02-06T00:29:14.063Z,0.16
2023-02-06T00:30:15.070Z,0.44
2023-02-06T00:31:57.748Z,0.52
2023-02-06T00:32:07.154Z,0.04
2023-02-06T00:33:33.960Z,0.52
2023-02-06T00:34:07.115Z,0.24
2023-02-06T00:35:37.411Z,0.40
2023-02-06T00:36:17.972Z,0.28
2023-02-06T00:37:13.203Z,0.20
2023-02-06T00:38:06.417Z,0.00
2023-02-06T00:39:06.226Z,0.00
2023-02-06T00:40:06.200Z,0.00
2023-02-06T00:41:06.189Z,0.00
2023-02-06T00:42:06.174Z,0.04
2023-02-06T00:43:06.189Z,0.00
2023-02-06T00:44:06.162Z,0.04
2023-02-06T00:45:06.150Z,0.20
2023-02-06T00:46:06.172Z,0.20
2023-02-06T00:47:06.143Z,0.04
2023-02-06T00:48:06.113Z,0.08
2023-02-06T00:49:06.103Z,0.16
2023-02-06T00:50:06.091Z,0.16
2023-02-06T00:51:06.087Z,0.40
2023-02-06T00:52:06.065Z,0.24
2023-02-06T00:53:06.074Z,0.08
2023-02-06T00:54:06.038Z,0.00
2023-02-06T00:55:06.022Z,0.04
2023-02-06T00:56:06.032Z,0.60
2023-02-06T00:57:06.006Z,0.16
2023-02-06T00:58:05.996Z,0.00
2023-02-06T00:59:05.980Z,0.00
2023-02-06T01:00:05.960Z,0.16
2023-02-06T01:01:05.938Z,0.08
2023-02-06T01:02:05.943Z,0.00
2023-02-06T01:03:05.933Z,0.00
2023-02-06T01:04:05.922Z,0.00
2023-02-06T01:05:05.895Z,0.12
2023-02-06T01:06:05.884Z,0.12
2023-02-06T01:07:05.880Z,0.08
2023-02-06T01:08:05.923Z,0.04
2023-02-06T01:09:05.840Z,0.20
2023-02-06T01:10:05.838Z,0.00
2023-02-06T01:11:05.824Z,0.00
2023-02-06T01:12:05.809Z,0.04
2023-02-06T01:13:05.821Z,0.00
2023-02-06T01:14:05.789Z,0.16
2023-02-06T01:15:05.769Z,0.20
2023-02-06T01:16:05.818Z,0.24
2023-02-06T01:17:05.738Z,0.12
2023-02-06T01:18:05.741Z,0.04
2023-02-06T01:19:05.710Z,0.04
2023-02-06T01:20:05.713Z,0.00
2023-02-06T01:21:05.689Z,0.00
2023-02-06T01:22:05.688Z,0.00
2023-02-06T01:23:05.686Z,0.00
2023-02-06T01:24:05.665Z,0.00
2023-02-06T01:25:05.637Z,0.00
2023-02-06T01:26:05.637Z,0.00
2023-02-06T01:27:05.619Z,0.00
2023-02-06T01:28:05.641Z,0.00
2023-02-06T01:29:05.598Z,0.00
2023-02-06T01:30:05.591Z,0.00
2023-02-06T01:31:05.674Z,0.00
2023-02-06T01:32:05.578Z,0.00
2023-02-06T01:33:05.556Z,0.00
2023-02-06T01:34:05.537Z,0.00
2023-02-06T01:35:05.639Z,0.00
2023-02-06T01:36:05.512Z,0.00
2023-02-06T01:37:05.487Z,0.00
2023-02-06T01:38:05.498Z,0.00
2023-02-06T01:39:05.466Z,0.00
2023-02-06T01:40:05.549Z,0.00
2023-02-06T01:41:05.438Z,0.00
2023-02-06T01:42:05.437Z,0.00
2023-02-06T01:43:06.921Z,0.00
2023-02-06T01:44:05.674Z,0.00
2023-02-06T01:45:05.390Z,0.00
2023-02-06T01:46:05.389Z,0.00
2023-02-06T01:47:05.359Z,0.00
2023-02-06T01:48:05.367Z,0.00
2023-02-06T01:49:07.016Z,0.00
2023-02-06T01:50:05.341Z,0.00
2023-02-06T01:51:05.314Z,0.00
2023-02-06T01:52:05.313Z,0.00
2023-02-06T01:53:05.304Z,0.04
2023-02-06T01:54:05.301Z,0.04
2023-02-06T01:55:05.270Z,0.00
2023-02-06T01:56:05.269Z,0.00
2023-02-06T01:57:05.242Z,0.00
2023-02-06T01:58:05.249Z,0.08
2023-02-06T01:59:05.225Z,0.24
2023-02-06T02:00:05.418Z,0.08
2023-02-06T02:01:05.307Z,0.00
2023-02-06T02:02:05.241Z,0.00
2023-02-06T02:03:05.178Z,0.00
2023-02-06T02:04:05.158Z,0.00
2023-02-06T02:05:05.142Z,0.00
2023-02-06T02:06:06.109Z,0.00
2023-02-06T02:07:05.120Z,0.08
2023-02-06T02:08:05.110Z,0.20
2023-02-06T02:09:05.108Z,0.08
2023-02-06T02:10:05.261Z,0.00
2023-02-06T02:11:05.060Z,0.08
2023-02-06T02:12:05.100Z,0.00
2023-02-06T02:13:05.062Z,0.00
2023-02-06T02:14:05.022Z,0.00
2023-02-06T02:15:05.025Z,0.00
2023-02-06T02:16:05.060Z,0.16
2023-02-06T02:17:05.003Z,0.68
2023-02-06T02:18:04.995Z,0.36
2023-02-06T02:19:05.014Z,0.16
2023-02-06T02:20:04.954Z,0.32
2023-02-06T02:21:04.947Z,0.16
2023-02-06T02:22:04.926Z,0.08
2023-02-06T02:23:04.936Z,0.36
2023-02-06T02:24:04.907Z,0.48
2023-02-06T02:25:04.897Z,0.24
2023-02-06T02:26:04.879Z,0.36
2023-02-06T02:27:04.878Z,0.00
2023-02-06T02:28:06.368Z,0.20
2023-02-06T02:29:04.867Z,0.12
2023-02-06T02:30:04.830Z,0.72
2023-02-06T02:31:04.844Z,0.60
2023-02-06T02:32:04.799Z,0.24
2023-02-06T02:33:04.817Z,0.44
2023-02-06T02:34:04.786Z,0.48
2023-02-06T02:35:04.983Z,0.44
2023-02-06T02:36:04.765Z,0.16
2023-02-06T02:37:04.759Z,0.12
2023-02-06T02:38:04.749Z,0.44
2023-02-06T02:39:04.753Z,0.44
2023-02-06T02:40:06.160Z,0.20
2023-02-06T02:41:04.717Z,0.36
2023-02-06T02:42:04.699Z,0.28
2023-02-06T02:43:04.705Z,0.32
2023-02-06T02:44:04.650Z,0.12
2023-02-06T02:45:04.688Z,0.24
2023-02-06T02:46:04.934Z,0.36
2023-02-06T02:47:04.643Z,0.28
2023-02-06T02:48:04.623Z,0.00
2023-02-06T02:49:04.605Z,0.00
2023-02-06T02:50:05.858Z,0.00
2023-02-06T02:51:04.577Z,0.00
2023-02-06T02:52:04.547Z,0.00
2023-02-06T02:53:04.557Z,0.12
2023-02-06T02:54:04.538Z,0.00
2023-02-06T02:55:04.516Z,0.00
2023-02-06T02:56:04.524Z,0.36
2023-02-06T02:57:04.772Z,0.24
2023-02-06T02:58:04.501Z,0.32
2023-02-06T03:00:13.689Z,0.00
2023-02-06T03:01:13.705Z,0.36
2023-02-06T03:02:13.667Z,0.44
2023-02-06T03:03:13.660Z,0.12
2023-02-06T03:04:13.634Z,0.04
2023-02-06T03:05:13.624Z,0.24
2023-02-06T03:06:13.600Z,0.60
2023-02-06T03:07:13.590Z,1.20
2023-02-06T03:08:13.610Z,0.96
2023-02-06T03:09:13.568Z,0.56
2023-02-06T03:10:13.550Z,0.84
2023-02-06T03:11:13.558Z,0.68
2023-02-06T03:12:13.535Z,0.44
2023-02-06T03:13:13.521Z,0.64
2023-02-06T03:14:13.502Z,0.80
2023-02-06T03:15:13.490Z,0.64
2023-02-06T03:16:13.503Z,0.56
2023-02-06T03:17:13.462Z,0.32
2023-02-06T03:18:13.463Z,0.36
2023-02-06T03:19:13.451Z,0.28
2023-02-06T03:20:13.421Z,0.16
2023-02-06T03:21:13.422Z,0.48
2023-02-06T03:22:13.412Z,0.56
2023-02-06T03:23:13.403Z,0.16
2023-02-06T03:24:13.378Z,0.28
2023-02-06T03:25:13.383Z,0.12
2023-02-06T03:26:13.354Z,0.16
2023-02-06T03:27:13.370Z,0.16
2023-02-06T03:28:13.381Z,0.16
2023-02-06T03:29:13.331Z,0.24
2023-02-06T03:30:13.313Z,0.16
2023-02-06T03:31:13.303Z,0.20
2023-02-06T03:32:13.287Z,0.20
2023-02-06T03:33:13.298Z,0.12
2023-02-06T03:34:13.258Z,0.20
2023-02-06T03:35:13.253Z,0.36
2023-02-06T03:36:13.228Z,0.72
2023-02-06T03:37:13.234Z,0.44
2023-02-06T03:38:13.205Z,0.16
2023-02-06T03:39:13.197Z,0.00
2023-02-06T03:40:13.193Z,0.00
2023-02-06T03:41:13.176Z,0.00
2023-02-06T03:42:13.180Z,0.04
2023-02-06T03:43:13.150Z,0.00
2023-02-06T03:44:13.151Z,0.08
2023-02-06T03:45:13.126Z,0.00
2023-02-06T03:46:13.176Z,0.00
2023-02-06T03:47:13.119Z,0.08
2023-02-06T03:48:13.087Z,0.00
2023-02-06T03:49:13.073Z,0.16
2023-02-06T03:50:13.065Z,0.32
2023-02-06T03:51:13.048Z,0.16
2023-02-06T03:52:13.019Z,0.04
2023-02-06T03:53:13.013Z,0.00
2023-02-06T03:54:13.008Z,0.56
2023-02-06T03:55:12.999Z,0.20
2023-02-06T03:56:12.988Z,0.24
2023-02-06T03:57:12.982Z,0.04
2023-02-06T03:58:12.949Z,0.24
2023-02-06T03:59:12.951Z,0.32
2023-02-06T04:00:12.920Z,0.12
2023-02-06T04:01:12.944Z,0.00
2023-02-06T04:02:12.908Z,0.00
2023-02-06T04:03:12.890Z,0.00
2023-02-06T04:04:12.883Z,0.00
2023-02-06T04:05:12.881Z,0.08
2023-02-06T04:06:12.890Z,0.32
2023-02-06T04:07:13.061Z,0.24
2023-02-06T04:08:12.829Z,0.56
2023-02-06T04:09:12.830Z,0.20
2023-02-06T04:10:12.805Z,0.00
2023-02-06T04:11:12.801Z,0.16
2023-02-06T04:12:12.784Z,0.04
2023-02-06T04:13:12.778Z,0.08
2023-02-06T04:14:12.773Z,0.20
2023-02-06T04:15:12.754Z,0.12
2023-02-06T04:16:12.766Z,0.08
2023-02-06T04:17:12.731Z,0.12
2023-02-06T04:18:14.169Z,0.16
2023-02-06T04:19:12.710Z,0.00
2023-02-06T04:20:12.675Z,0.32
2023-02-06T04:21:12.665Z,0.04
2023-02-06T04:22:12.655Z,0.20
2023-02-06T04:23:12.643Z,0.44
2023-02-06T04:24:12.647Z,0.60
2023-02-06T04:25:12.626Z,0.56
2023-02-06T04:26:12.618Z,0.56
2023-02-06T04:27:12.592Z,0.16
2023-02-06T04:28:12.635Z,0.20
2023-02-06T04:29:12.581Z,0.48
2023-02-06T04:30:12.553Z,0.72
2023-02-06T04:31:12.614Z,0.80
2023-02-06T04:32:12.544Z,0.88
2023-02-06T04:33:12.549Z,0.72
2023-02-06T04:34:12.526Z,0.08
2023-02-06T04:35:13.294Z,0.04
2023-02-06T04:36:12.476Z,0.44
2023-02-06T04:37:12.472Z,0.32
2023-02-06T04:38:12.444Z,0.36
2023-02-06T04:39:12.469Z,0.08
2023-02-06T04:40:12.435Z,0.00
2023-02-06T04:41:12.415Z,0.20
2023-02-06T04:42:12.398Z,0.60
2023-02-06T04:43:12.385Z,0.36
2023-02-06T04:44:12.386Z,0.44
2023-02-06T04:45:12.368Z,0.44
2023-02-06T04:46:12.375Z,0.36
2023-02-06T04:47:12.347Z,0.32
2023-02-06T04:48:12.567Z,0.36
2023-02-06T04:49:12.344Z,0.56
2023-02-06T04:50:12.312Z,0.40
2023-02-06T04:51:12.306Z,0.04
2023-02-06T04:52:12.539Z,0.04
2023-02-06T04:53:12.278Z,0.08
2023-02-06T04:54:12.254Z,0.00
2023-02-06T04:55:12.248Z,0.00
2023-02-06T04:56:12.222Z,0.00
2023-02-06T04:57:12.212Z,0.00
2023-02-06T04:58:12.188Z,0.52
2023-02-06T04:59:12.194Z,0.52
2023-02-06T05:00:12.184Z,0.32
2023-02-06T05:01:12.990Z,0.56
2023-02-06T05:02:12.221Z,0.44
2023-02-06T05:03:12.145Z,0.52
2023-02-06T05:04:12.148Z,0.68
2023-02-06T05:05:12.145Z,0.76
2023-02-06T05:06:12.094Z,0.60
2023-02-06T05:07:12.106Z,0.68
2023-02-06T05:08:12.334Z,0.52
2023-02-06T05:09:12.089Z,0.60
2023-02-06T05:10:12.061Z,0.64
2023-02-06T05:11:12.032Z,0.76
2023-02-06T05:12:14.346Z,0.96
2023-02-06T05:13:12.005Z,0.76
2023-02-06T05:14:11.989Z,0.76
2023-02-06T05:15:12.019Z,0.88
2023-02-06T05:16:12.162Z,0.80
2023-02-06T05:17:11.948Z,0.40
2023-02-06T05:18:11.943Z,0.16
2023-02-06T05:19:11.925Z,0.92
2023-02-06T05:20:11.923Z,0.68
2023-02-06T05:21:11.899Z,0.52
2023-02-06T05:22:11.892Z,0.60
2023-02-06T05:23:11.874Z,0.60
2023-02-06T05:24:11.876Z,0.32
2023-02-06T05:25:11.853Z,0.48
2023-02-06T05:26:11.838Z,0.40
2023-02-06T05:27:11.812Z,0.56
2023-02-06T05:28:11.825Z,0.72
2023-02-06T05:29:11.793Z,0.32
2023-02-06T05:30:11.802Z,0.40
2023-02-06T05:31:11.862Z,0.88
2023-02-06T05:32:11.774Z,0.28
2023-02-06T05:33:11.742Z,0.20
2023-02-06T05:34:11.732Z,0.28
2023-02-06T05:35:11.728Z,0.40
2023-02-06T05:36:11.716Z,0.28
2023-02-06T05:37:11.691Z,0.20
2023-02-06T05:38:11.695Z,0.36
2023-02-06T05:39:11.664Z,0.36
2023-02-06T05:40:11.666Z,0.16
2023-02-06T05:41:11.656Z,0.28
2023-02-06T05:42:11.637Z,0.00
2023-02-06T05:43:11.613Z,0.00
2023-02-06T05:44:11.620Z,0.48
2023-02-06T05:45:11.619Z,0.56
2023-02-06T05:46:11.834Z,0.04
2023-02-06T05:47:11.569Z,0.00
2023-02-06T05:48:11.575Z,0.16
2023-02-06T05:49:13.838Z,0.04
2023-02-06T05:50:14.708Z,0.16
2023-02-06T05:57:14.939Z,2.16
2023-02-06T05:57:36.734Z,0.28
2023-02-06T05:58:19.704Z,0.28
2023-02-06T05:59:19.691Z,0.44
2023-02-06T06:00:19.684Z,0.20
2023-02-06T06:01:19.668Z,0.12
2023-02-06T06:02:19.643Z,0.16
2023-02-06T06:03:19.646Z,0.04
2023-02-06T06:04:19.681Z,0.00
2023-02-06T06:05:19.622Z,0.04
2023-02-06T06:06:19.618Z,0.12
2023-02-06T06:07:19.592Z,0.36
2023-02-06T06:08:19.573Z,0.24
2023-02-06T06:09:19.568Z,0.48
2023-02-06T06:10:19.555Z,0.48
2023-02-06T06:11:19.836Z,0.16
2023-02-06T06:12:19.517Z,0.04
2023-02-06T06:13:19.509Z,0.24
2023-02-06T06:14:19.485Z,0.04
2023-02-06T06:15:19.499Z,0.36
2023-02-06T06:16:19.566Z,0.04
2023-02-06T06:17:19.715Z,0.36
2023-02-06T06:18:19.437Z,0.00
2023-02-06T06:19:19.445Z,0.24
2023-02-06T06:20:19.428Z,0.04
2023-02-06T06:21:19.415Z,0.00
2023-02-06T06:22:19.400Z,0.00
2023-02-06T06:23:19.391Z,0.00
2023-02-06T06:24:19.376Z,0.00
2023-02-06T06:25:19.374Z,0.00
2023-02-06T06:26:19.341Z,0.00
2023-02-06T06:27:19.352Z,0.00
2023-02-06T06:28:19.381Z,0.08
2023-02-06T06:29:19.318Z,0.00
2023-02-06T06:30:19.299Z,0.04
2023-02-06T06:31:19.356Z,0.04
2023-02-06T06:32:19.262Z,0.00
2023-02-06T06:33:19.259Z,0.00
2023-02-06T06:34:19.266Z,0.00
2023-02-06T06:35:19.255Z,0.00
2023-02-06T06:36:19.219Z,0.00
2023-02-06T06:37:19.205Z,0.00
2023-02-06T06:38:19.194Z,0.00
2023-02-06T06:39:19.186Z,0.00
2023-02-06T06:40:19.173Z,0.00
2023-02-06T06:41:19.170Z,0.00
2023-02-06T06:42:19.165Z,0.00
2023-02-06T06:43:19.129Z,0.00
2023-02-06T06:44:19.112Z,0.00
2023-02-06T06:45:19.150Z,0.00
2023-02-06T06:46:19.089Z,0.00
2023-02-06T06:47:19.082Z,0.12
2023-02-06T06:48:19.064Z,0.00
2023-02-06T06:49:19.087Z,0.00
2023-02-06T06:50:19.058Z,0.00
2023-02-06T06:51:19.041Z,0.00
2023-02-06T06:52:24.827Z,0.00
2023-02-06T06:53:20.021Z,0.00
2023-02-06T06:54:20.480Z,0.00
2023-02-06T06:55:18.989Z,0.00
2023-02-06T06:56:18.952Z,0.00
2023-02-06T06:57:18.960Z,0.00
2023-02-06T06:58:18.928Z,0.00
2023-02-06T06:59:18.922Z,0.00
2023-02-06T07:00:18.912Z,0.00
2023-02-06T07:01:18.973Z,0.00
2023-02-06T07:02:18.900Z,0.00
2023-02-06T07:03:18.916Z,0.00
2023-02-06T07:04:18.861Z,0.00
2023-02-06T07:05:18.853Z,0.00
2023-02-06T07:06:18.848Z,0.00
2023-02-06T07:07:18.857Z,0.00
2023-02-06T07:08:19.610Z,0.00
2023-02-06T07:09:18.801Z,0.00
2023-02-06T07:10:18.800Z,0.00
2023-02-06T07:11:18.790Z,0.00
2023-02-06T07:12:18.751Z,0.00
2023-02-06T07:13:18.751Z,0.00
2023-02-06T07:14:18.731Z,0.00
2023-02-06T07:15:18.725Z,0.00
2023-02-06T07:16:18.765Z,0.00
2023-02-06T07:17:18.698Z,0.00
2023-02-06T07:18:18.685Z,0.00
2023-02-06T07:19:19.451Z,0.00
2023-02-06T07:20:18.663Z,0.00
2023-02-06T07:21:18.664Z,0.00
2023-02-06T07:22:18.651Z,0.00
2023-02-06T07:23:18.624Z,0.00
2023-02-06T07:24:18.581Z,0.00
2023-02-06T07:25:18.586Z,0.00
2023-02-06T07:26:18.591Z,0.00
2023-02-06T07:27:18.592Z,0.00
2023-02-06T07:28:18.598Z,0.00
2023-02-06T07:29:18.566Z,0.00
2023-02-06T07:30:18.536Z,0.00
2023-02-06T07:31:18.580Z,0.00
2023-02-06T07:32:18.504Z,0.00
2023-02-06T07:33:18.493Z,0.00
2023-02-06T07:34:19.954Z,0.00
2023-02-06T07:35:18.470Z,0.24
2023-02-06T07:36:18.611Z,0.00
2023-02-06T07:37:18.448Z,0.04
2023-02-06T07:38:18.425Z,0.00
2023-02-06T07:39:18.432Z,0.00
2023-02-06T07:40:18.408Z,0.04
2023-02-06T07:41:18.405Z,0.00
2023-02-06T07:42:18.385Z,0.00
2023-02-06T07:43:18.395Z,0.00
2023-02-06T07:44:18.355Z,0.00
2023-02-06T07:45:18.357Z,0.00
2023-02-06T07:46:18.384Z,0.04
2023-02-06T07:47:18.475Z,0.00
2023-02-06T07:48:18.315Z,0.00
2023-02-06T07:49:18.298Z,0.00
2023-02-06T07:50:18.285Z,0.04
2023-02-06T07:51:18.318Z,0.08
2023-02-06T07:52:18.256Z,0.00
2023-02-06T07:53:18.292Z,0.00
2023-02-06T07:54:20.708Z,0.00
2023-02-06T07:55:18.246Z,0.00
2023-02-06T07:56:18.285Z,0.00
2023-02-06T07:57:19.179Z,0.00
2023-02-06T07:58:18.199Z,0.00
2023-02-06T07:59:18.181Z,0.04
2023-02-06T08:00:18.428Z,0.00
2023-02-06T08:01:18.171Z,0.00
2023-02-06T08:02:18.157Z,0.00
2023-02-06T08:03:18.153Z,0.00
2023-02-06T08:04:18.213Z,0.12
2023-02-06T08:05:18.105Z,0.00
2023-02-06T08:06:18.097Z,0.00
2023-02-06T08:07:18.911Z,0.00
2023-02-06T08:08:18.058Z,0.08
2023-02-06T08:09:18.058Z,0.00
2023-02-06T08:10:18.034Z,0.00
2023-02-06T08:11:18.045Z,0.00
2023-02-06T08:12:18.023Z,0.00
2023-02-06T08:13:17.998Z,0.00
2023-02-06T08:14:17.979Z,0.00
2023-02-06T08:15:17.969Z,0.00
2023-02-06T08:16:17.972Z,0.00
2023-02-06T08:17:19.668Z,0.00
2023-02-06T08:18:18.093Z,0.00
2023-02-06T08:19:17.928Z,0.00
2023-02-06T08:20:17.909Z,0.04
2023-02-06T08:21:17.921Z,0.00
2023-02-06T08:22:17.883Z,0.00
2023-02-06T08:23:19.676Z,0.00
2023-02-06T08:24:17.839Z,0.00
2023-02-06T08:25:17.846Z,0.00
2023-02-06T08:26:17.854Z,0.00
2023-02-06T08:27:17.834Z,0.00
2023-02-06T08:28:17.845Z,0.00
2023-02-06T08:29:17.808Z,0.00
2023-02-06T08:30:17.796Z,0.00
2023-02-06T08:31:17.852Z,0.00
2023-02-06T08:32:17.750Z,0.16
2023-02-06T08:33:17.744Z,0.16
2023-02-06T08:34:17.736Z,0.04
2023-02-06T08:35:17.738Z,0.00
2023-02-06T08:36:17.740Z,0.00
2023-02-06T08:37:17.733Z,0.00
2023-02-06T08:38:17.716Z,0.00
2023-02-06T08:39:17.681Z,0.00
2023-02-06T08:40:17.654Z,0.00
2023-02-06T08:41:17.664Z,0.00
2023-02-06T08:42:17.651Z,0.00
2023-02-06T08:43:18.572Z,0.00
2023-02-06T08:44:17.627Z,0.12
2023-02-06T08:45:17.596Z,0.04
2023-02-06T08:46:17.624Z,0.04
2023-02-06T08:47:17.572Z,0.00
2023-02-06T08:48:17.563Z,0.00
2023-02-06T08:49:17.564Z,0.04
2023-02-06T08:50:17.532Z,0.04
2023-02-06T08:51:17.524Z,0.04
2023-02-06T08:52:17.524Z,0.04
2023-02-06T08:53:17.490Z,0.00
2023-02-06T08:54:17.486Z,0.12
2023-02-06T08:55:17.475Z,0.16
2023-02-06T08:56:17.446Z,0.00
2023-02-06T08:57:17.454Z,0.00
2023-02-06T08:58:17.434Z,0.00
2023-02-06T08:59:17.430Z,0.48
2023-02-06T09:00:17.395Z,0.32
2023-02-06T09:01:17.488Z,0.36
2023-02-06T09:02:17.496Z,0.72
2023-02-06T09:03:17.377Z,0.00
2023-02-06T09:04:17.364Z,0.24
2023-02-06T09:05:17.356Z,0.32
2023-02-06T09:06:17.330Z,0.44
2023-02-06T09:07:17.429Z,0.16
2023-02-06T09:08:17.306Z,0.24
2023-02-06T09:09:17.306Z,0.16
2023-02-06T09:10:27.021Z,0.48
2023-02-06T09:11:18.315Z,0.24
2023-02-06T09:12:17.285Z,0.20
2023-02-06T09:13:17.254Z,0.00
2023-02-06T09:14:18.053Z,0.60
2023-02-06T09:15:17.229Z,0.00
2023-02-06T09:16:17.278Z,0.68
2023-02-06T09:17:17.207Z,0.68
2023-02-06T09:18:17.189Z,0.80
2023-02-06T09:19:17.209Z,0.00
2023-02-06T09:20:17.162Z,0.12
2023-02-06T09:21:17.184Z,0.08
2023-02-06T09:22:17.181Z,0.48
2023-02-06T09:23:17.116Z,1.40
2023-02-06T09:24:17.187Z,1.40
2023-02-06T09:25:17.115Z,0.56
2023-02-06T09:26:17.087Z,0.16
2023-02-06T09:27:17.100Z,0.00
2023-02-06T09:28:17.211Z,1.68
2023-02-06T09:29:17.080Z,0.68
2023-02-06T09:30:17.141Z,0.72
2023-02-06T09:31:17.157Z,0.72
2023-02-06T09:32:17.015Z,0.40
2023-02-06T09:33:16.993Z,0.84
2023-02-06T09:34:17.049Z,0.56
2023-02-06T09:35:16.989Z,0.28
2023-02-06T09:36:16.994Z,0.72
2023-02-06T09:37:17.032Z,0.32
2023-02-06T09:38:17.090Z,0.28
2023-02-06T09:39:16.929Z,0.92
2023-02-06T09:40:17.053Z,0.64
2023-02-06T09:41:17.090Z,0.40
2023-02-06T09:42:17.091Z,0.52
2023-02-06T09:43:16.905Z,1.00
2023-02-06T09:44:17.000Z,0.76
2023-02-06T09:45:16.969Z,1.60
2023-02-06T09:46:16.929Z,0.84
2023-02-06T09:47:16.924Z,1.32
2023-02-06T09:48:16.871Z,2.32
2023-02-06T09:49:16.857Z,1.80
2023-02-06T09:50:16.780Z,1.64
2023-02-06T09:51:16.798Z,1.28
2023-02-06T09:52:16.789Z,0.92
2023-02-06T09:53:16.756Z,2.08
2023-02-06T09:54:16.756Z,0.76
2023-02-06T09:55:16.774Z,2.36
2023-02-06T09:56:16.714Z,2.04
2023-02-06T09:57:16.686Z,1.68
2023-02-06T09:58:16.691Z,2.24
2023-02-06T09:59:17.640Z,0.72
2023-02-06T10:00:16.665Z,1.20
2023-02-06T10:01:16.691Z,1.84
2023-02-06T10:02:16.642Z,2.04
2023-02-06T10:03:16.616Z,1.04
2023-02-06T10:04:16.661Z,1.40
2023-02-06T10:05:16.602Z,1.08
2023-02-06T10:06:16.599Z,1.60
2023-02-06T10:07:16.628Z,1.08
2023-02-06T10:08:16.572Z,1.76
2023-02-06T10:09:16.551Z,1.80
2023-02-06T10:10:16.540Z,1.92
2023-02-06T10:11:16.512Z,2.28
2023-02-06T10:12:16.533Z,1.00
2023-02-06T10:13:16.490Z,1.04
2023-02-06T10:14:16.490Z,1.36
2023-02-06T10:15:16.465Z,1.36
2023-02-06T10:16:16.484Z,1.24
2023-02-06T10:17:16.462Z,1.96
2023-02-06T10:18:17.539Z,1.20
2023-02-06T10:19:16.648Z,1.72
2023-02-06T10:20:16.755Z,1.68
2023-02-06T10:21:16.379Z,1.20
2023-02-06T10:22:16.385Z,2.08
2023-02-06T10:23:16.632Z,1.44
2023-02-06T10:24:16.355Z,1.08
2023-02-06T10:25:16.333Z,1.36
2023-02-06T10:26:16.329Z,1.16
2023-02-06T10:27:16.316Z,1.64
2023-02-06T10:28:16.334Z,1.20
2023-02-06T10:29:16.941Z,1.04
2023-02-06T10:30:16.284Z,1.80
2023-02-06T10:31:16.398Z,1.16
2023-02-06T10:32:16.260Z,2.00
2023-02-06T10:33:25.243Z,1.60
2023-02-06T10:34:17.246Z,0.96
2023-02-06T10:35:16.218Z,1.20
2023-02-06T10:36:16.215Z,1.12
2023-02-06T10:37:16.196Z,1.80
2023-02-06T10:38:17.145Z,0.96
2023-02-06T10:39:16.188Z,0.92
2023-02-06T10:40:16.223Z,1.36
2023-02-06T10:41:16.147Z,2.24
2023-02-06T10:42:16.149Z,1.32
2023-02-06T10:43:16.131Z,1.12
2023-02-06T10:44:16.111Z,1.92
2023-02-06T10:45:21.945Z,2.28
2023-02-06T10:46:18.070Z,0.80
2023-02-06T10:47:16.150Z,1.92
2023-02-06T10:48:16.080Z,2.04
2023-02-06T10:49:16.047Z,2.56
2023-02-06T10:50:16.096Z,3.08
2023-02-06T10:51:16.054Z,3.04
2023-02-06T10:52:16.039Z,2.96
2023-02-06T10:53:16.023Z,1.96
2023-02-06T10:54:15.990Z,1.76
2023-02-06T10:55:15.971Z,1.64
2023-02-06T10:56:15.969Z,1.36
2023-02-06T10:57:15.961Z,1.40
2023-02-06T10:58:15.942Z,1.12
2023-02-06T10:59:15.923Z,2.24
2023-02-06T11:00:15.954Z,2.84
2023-02-06T11:01:25.429Z,1.72
2023-02-06T11:02:16.931Z,1.48
2023-02-06T11:03:15.883Z,2.08
2023-02-06T11:04:15.895Z,2.44
2023-02-06T11:05:15.852Z,2.28
2023-02-06T11:06:15.839Z,2.20
2023-02-06T11:07:15.832Z,1.52
2023-02-06T11:08:15.822Z,2.00
2023-02-06T11:09:15.802Z,2.20
2023-02-06T11:10:15.858Z,2.52
2023-02-06T11:11:15.773Z,1.12
2023-02-06T11:12:15.764Z,2.44
2023-02-06T11:13:15.770Z,0.88
2023-02-06T11:14:15.744Z,2.68
2023-02-06T11:15:15.730Z,1.52
2023-02-06T11:16:15.724Z,1.48
2023-02-06T11:17:15.702Z,1.60
2023-02-06T11:18:15.704Z,1.52
2023-02-06T11:19:15.683Z,1.80
2023-02-06T11:20:15.714Z,1.00
2023-02-06T11:21:15.662Z,2.84
2023-02-06T11:22:15.677Z,1.36
2023-02-06T11:23:15.634Z,2.48
2023-02-06T11:24:15.845Z,1.84
2023-02-06T11:25:15.594Z,1.40
2023-02-06T11:26:16.545Z,2.12
2023-02-06T11:27:15.585Z,2.44
2023-02-06T11:28:15.652Z,1.60
2023-02-06T11:29:15.549Z,2.12
2023-02-06T11:30:15.537Z,2.20
2023-02-06T11:31:15.553Z,2.96
2023-02-06T11:32:15.536Z,1.48
2023-02-06T11:33:15.511Z,1.60
2023-02-06T11:34:15.490Z,1.76
2023-02-06T11:35:15.474Z,1.88
2023-02-06T11:36:15.466Z,2.08
2023-02-06T11:37:15.453Z,1.20
2023-02-06T11:38:16.296Z,0.76
2023-02-06T11:39:15.552Z,1.48
2023-02-06T11:40:15.512Z,2.56
2023-02-06T11:41:15.415Z,2.24
2023-02-06T11:42:15.419Z,1.68
2023-02-06T11:43:15.386Z,2.12
2023-02-06T11:44:15.364Z,2.12
2023-02-06T11:45:15.357Z,2.20
2023-02-06T11:46:15.414Z,1.68
2023-02-06T11:47:15.572Z,1.04
2023-02-06T11:48:15.356Z,1.40
2023-02-06T11:49:15.300Z,1.28
2023-02-06T11:50:15.321Z,1.32
2023-02-06T11:51:15.290Z,2.76
2023-02-06T11:52:15.294Z,1.28
2023-02-06T11:53:15.261Z,1.28
2023-02-06T11:54:15.240Z,1.08
2023-02-06T11:55:15.228Z,1.48
2023-02-06T11:56:15.230Z,0.96
2023-02-06T11:57:15.201Z,1.04
2023-02-06T11:58:15.215Z,1.80
2023-02-06T11:59:15.181Z,1.12
2023-02-06T12:00:15.159Z,1.44
2023-02-06T12:01:15.182Z,1.92
2023-02-06T12:02:15.177Z,1.76
2023-02-06T12:03:15.157Z,1.40
2023-02-06T12:04:15.118Z,1.72
2023-02-06T12:05:15.112Z,1.16
2023-02-06T12:06:15.095Z,1.88
2023-02-06T12:07:15.091Z,1.48
2023-02-06T12:08:15.084Z,2.32
2023-02-06T12:09:15.042Z,1.40
2023-02-06T12:10:15.348Z,1.24
2023-02-06T12:11:15.045Z,1.28
2023-02-06T12:12:15.012Z,1.08
2023-02-06T12:13:15.045Z,0.84
2023-02-06T12:14:15.001Z,1.64
2023-02-06T12:15:39.768Z,1.12
2023-02-06T12:16:16.010Z,0.76
2023-02-06T12:17:14.942Z,0.88
2023-02-06T12:18:14.970Z,0.88
2023-02-06T12:19:14.939Z,0.80
2023-02-06T12:20:14.923Z,0.88
2023-02-06T12:21:14.902Z,1.40
2023-02-06T12:22:14.956Z,1.12
2023-02-06T12:23:14.901Z,0.92
2023-02-06T12:24:14.875Z,0.84
2023-02-06T12:25:14.862Z,0.88
2023-02-06T12:26:14.854Z,1.52
2023-02-06T12:27:14.835Z,1.28
2023-02-06T12:28:14.870Z,1.48
2023-02-06T12:29:15.054Z,1.56
2023-02-06T12:30:14.805Z,1.56
2023-02-06T12:31:14.912Z,0.92
2023-02-06T12:32:14.777Z,1.88
2023-02-06T12:33:14.783Z,1.64
2023-02-06T12:34:14.773Z,1.48
2023-02-06T12:35:14.744Z,1.56
2023-02-06T12:36:14.713Z,1.56
2023-02-06T12:37:14.711Z,0.84
2023-02-06T12:38:14.694Z,1.48
2023-02-06T12:39:16.603Z,1.20
2023-02-06T12:40:14.684Z,0.44
2023-02-06T12:41:14.652Z,1.12
2023-02-06T12:42:14.643Z,1.28
2023-02-06T12:43:14.627Z,0.28
2023-02-06T12:44:14.621Z,1.48
2023-02-06T12:45:14.602Z,1.48
2023-02-06T12:46:14.638Z,1.28
2023-02-06T12:47:14.580Z,1.44
2023-02-06T12:48:14.562Z,1.48
2023-02-06T12:49:14.557Z,0.60
2023-02-06T12:50:14.553Z,0.72
2023-02-06T12:51:14.521Z,0.92
2023-02-06T12:52:14.551Z,2.00
2023-02-06T12:53:14.501Z,0.96
2023-02-06T12:54:14.512Z,0.68
2023-02-06T12:55:14.477Z,0.96
2023-02-06T12:56:14.471Z,1.04
2023-02-06T12:57:14.706Z,0.28
2023-02-06T12:58:14.441Z,0.32
2023-02-06T12:59:14.439Z,0.96
2023-02-06T13:00:14.412Z,0.56
2023-02-06T13:01:24.595Z,0.60
2023-02-06T13:02:15.585Z,0.76
2023-02-06T13:03:14.395Z,0.44
2023-02-06T13:04:14.384Z,0.24
2023-02-06T13:05:14.359Z,1.20
2023-02-06T13:06:14.351Z,0.72
2023-02-06T13:07:14.337Z,0.44
2023-02-06T13:08:14.325Z,0.56
2023-02-06T13:09:14.582Z,1.64
2023-02-06T13:10:14.295Z,0.72
2023-02-06T13:11:14.287Z,1.20
2023-02-06T13:12:14.282Z,1.04
2023-02-06T13:13:14.294Z,0.56
2023-02-06T13:14:14.304Z,0.52
2023-02-06T13:15:14.240Z,1.60
2023-02-06T13:16:14.293Z,1.12
2023-02-06T13:17:14.226Z,1.00
2023-02-06T13:18:14.198Z,1.12
2023-02-06T13:19:14.201Z,1.48
2023-02-06T13:20:14.174Z,1.00
2023-02-06T13:21:14.164Z,0.92
2023-02-06T13:22:14.157Z,1.20
2023-02-06T13:23:14.184Z,1.20
2023-02-06T13:24:14.152Z,0.96
2023-02-06T13:25:14.119Z,0.92